Time;durP1;ratioP1;P1;durP2;ratioP2;P2;SDS_P1;SDS_P2;PMS_P1;PMS_P2;Temp;Humidity;BMP_temperature;BMP_pressure;BME280_temperature;BME280_humidity;BME280_pressure;Samples;Min_cycle;Max_cycle;Signal;HPM_P1;HPM_P2
2023/09/21 00:01:05;;;;;;;3.40;1.60;;;16.40;87.00;;;;;;5014713;28;20731;-40
2023/09/21 00:03:31;;;;;;;3.83;1.80;;;16.40;91.20;;;;;;5013804;28;20637;-43
2023/09/21 00:05:58;;;;;;;3.10;1.67;;;16.50;92.00;;;;;;5014837;28;20186;-44
2023/09/21 00:08:24;;;;;;;2.43;1.60;;;16.50;92.20;;;;;;5015022;28;20173;-42
2023/09/21 00:10:51;;;;;;;4.00;1.60;;;16.50;90.10;;;;;;5014653;28;20248;-45
2023/09/21 00:13:20;;;;;;;1.93;1.40;;;16.50;88.80;;;;;;5015007;28;20188;-43
2023/09/21 00:15:49;;;;;;;1.57;1.30;;;16.50;90.80;;;;;;5013599;28;20186;-42
2023/09/21 00:18:38;;;;;;;2.33;1.47;;;16.50;91.80;;;;;;5014987;28;20181;-45
2023/09/21 00:21:07;;;;;;;3.20;1.37;;;16.50;91.00;;;;;;5016435;28;20236;-45
2023/09/21 00:23:33;;;;;;;2.43;1.57;;;16.60;90.20;;;;;;5013888;28;20177;-44
2023/09/21 00:26:00;;;;;;;1.80;1.40;;;16.60;89.20;;;;;;5013289;28;20181;-44
2023/09/21 00:28:29;;;;;;;1.97;1.37;;;16.60;86.20;;;;;;5014437;28;20185;-44
2023/09/21 00:30:57;;;;;;;2.63;1.30;;;16.60;86.20;;;;;;5014558;28;20240;-43
2023/09/21 00:33:30;;;;;;;3.37;2.07;;;16.60;87.20;;;;;;5014842;28;20178;-45
2023/09/21 00:35:59;;;;;;;2.83;1.40;;;16.70;83.80;;;;;;5014604;28;20201;-46
2023/09/21 00:38:27;;;;;;;2.07;1.60;;;16.70;88.00;;;;;;5014193;28;20233;-44
2023/09/21 00:40:58;;;;;;;2.77;1.30;;;16.60;85.70;;;;;;5014139;28;20243;-45
2023/09/21 00:43:24;;;;;;;3.17;1.70;;;16.70;82.50;;;;;;5012993;28;20178;-40
2023/09/21 00:45:57;;;;;;;2.30;1.60;;;16.60;83.00;;;;;;5014145;28;20629;-44
2023/09/21 00:48:26;;;;;;;1.57;1.47;;;16.60;82.30;;;;;;5014039;28;20711;-39
2023/09/21 00:50:54;;;;;;;3.60;1.60;;;16.60;82.90;;;;;;5014249;28;20707;-48
2023/09/21 00:53:27;;;;;;;3.47;1.50;;;16.60;81.40;;;;;;5013207;28;20235;-48
2023/09/21 00:55:59;;;;;;;2.17;1.40;;;16.60;82.50;;;;;;5012697;28;20209;-49
2023/09/21 00:58:26;;;;;;;1.90;1.47;;;16.60;81.10;;;;;;5014217;28;20162;-47
2023/09/21 01:00:55;;;;;;;2.20;1.40;;;16.70;79.60;;;;;;5013833;28;20214;-46
2023/09/21 01:03:27;;;;;;;2.77;1.80;;;16.70;75.90;;;;;;5013863;28;20231;-50
2023/09/21 01:05:54;;;;;;;4.50;1.60;;;16.70;73.60;;;;;;5013816;28;20163;-47
2023/09/21 01:08:28;;;;;;;5.00;1.50;;;16.70;69.90;;;;;;5013713;28;20177;-49
2023/09/21 01:10:57;;;;;;;2.33;1.40;;;16.70;68.80;;;;;;4995966;28;20252;-47
2023/09/21 01:13:26;;;;;;;4.17;1.40;;;16.70;65.50;;;;;;5012410;28;20202;-46
2023/09/21 01:16:00;;;;;;;4.80;1.60;;;16.80;65.70;;;;;;5013998;28;20190;-47
2023/09/21 01:18:26;;;;;;;5.10;1.50;;;16.70;65.40;;;;;;5013669;28;20187;-47
2023/09/21 01:21:15;;;;;;;1.60;1.37;;;16.80;65.90;;;;;;5013480;28;20295;-47
2023/09/21 01:23:52;;;;;;;3.50;1.80;;;16.80;63.90;;;;;;5013092;28;20268;-47
2023/09/21 01:26:19;;;;;;;3.13;1.57;;;16.80;61.00;;;;;;5013652;28;20161;-47
2023/09/21 01:28:47;;;;;;;2.80;1.70;;;16.80;62.00;;;;;;5013433;28;20197;-49
2023/09/21 01:36:34;;;;;;;1.13;1.03;;;16.80;64.50;;;;;;2685752;23;20243;-44
2023/09/21 01:39:00;;;;;;;2.33;1.50;;;16.70;63.40;;;;;;5013473;28;20271;-44
2023/09/21 01:41:27;;;;;;;1.73;1.53;;;16.70;65.30;;;;;;5012325;28;20174;-49
2023/09/21 01:43:53;;;;;;;4.00;1.37;;;16.60;67.80;;;;;;5013356;28;20268;-47
2023/09/21 01:46:22;;;;;;;2.33;1.20;;;16.60;68.30;;;;;;5013497;28;20176;-47
2023/09/21 01:48:51;;;;;;;2.37;1.60;;;16.60;71.20;;;;;;5013490;28;20177;-46
2023/09/21 01:51:20;;;;;;;3.53;1.17;;;16.60;70.20;;;;;;5012503;28;20185;-47
2023/09/21 01:53:47;;;;;;;4.93;1.63;;;16.60;70.90;;;;;;5013592;28;20184;-44
2023/09/21 01:56:14;;;;;;;1.40;1.30;;;16.60;73.40;;;;;;5012264;28;20273;-45
2023/09/21 01:58:41;;;;;;;2.37;1.50;;;16.60;75.30;;;;;;5013328;28;20194;-44
2023/09/21 02:01:07;;;;;;;1.83;1.40;;;16.50;75.80;;;;;;5012181;28;20232;-44
2023/09/21 02:03:33;;;;;;;5.40;1.50;;;16.50;77.10;;;;;;5013628;28;20180;-44
2023/09/21 02:06:39;;;;;;;3.43;1.60;;;16.50;75.90;;;;;;5012171;28;20526;-45
2023/09/21 02:09:16;;;;;;;2.67;1.43;;;16.50;77.50;;;;;;5013713;28;20256;-45
2023/09/21 02:11:44;;;;;;;2.90;1.70;;;16.50;77.50;;;;;;5010845;28;20196;-42
2023/09/21 02:14:11;;;;;;;8.07;1.93;;;16.40;75.00;;;;;;5013740;28;20173;-44
2023/09/21 02:16:38;;;;;;;3.63;1.47;;;16.40;73.40;;;;;;5013185;28;20228;-43
2023/09/21 02:19:04;;;;;;;3.33;1.70;;;16.40;73.20;;;;;;5011877;28;20228;-44
2023/09/21 02:21:30;;;;;;;1.90;1.30;;;16.40;72.80;;;;;;5014716;28;20269;-43
2023/09/21 02:23:56;;;;;;;4.60;1.70;;;16.40;72.20;;;;;;5015825;28;20193;-42
2023/09/21 02:26:23;;;;;;;2.97;1.40;;;16.40;68.70;;;;;;5016815;28;20186;-44
2023/09/21 02:28:49;;;;;;;3.30;1.50;;;16.40;66.60;;;;;;5016722;28;20185;-45
2023/09/21 02:31:21;;;;;;;5.17;1.73;;;16.40;61.00;;;;;;5016637;28;20232;-45
2023/09/21 02:33:47;;;;;;;3.13;1.80;;;16.30;58.20;;;;;;5016867;28;20166;-44
2023/09/21 02:36:19;;;;;;;4.40;1.80;;;16.40;53.20;;;;;;5016699;28;20204;-46
2023/09/21 02:38:45;;;;;;;2.97;1.43;;;16.40;51.90;;;;;;5015571;28;20239;-42
2023/09/21 02:41:11;;;;;;;3.13;1.50;;;16.40;52.40;;;;;;4998991;28;20217;-44
2023/09/21 02:43:40;;;;;;;2.60;1.50;;;16.30;54.70;;;;;;5016852;28;20700;-48
2023/09/21 02:46:06;;;;;;;4.40;1.80;;;16.30;56.80;;;;;;5015386;28;20535;-46
2023/09/21 02:48:34;;;;;;;2.97;1.40;;;16.30;55.90;;;;;;5023829;23;20295;-44
2023/09/21 02:51:04;;;;;;;3.53;1.70;;;16.30;57.30;;;;;;5015007;28;20292;-44
2023/09/21 02:53:30;;;;;;;5.13;1.80;;;16.30;57.50;;;;;;5016183;28;20188;-41
2023/09/21 02:55:57;;;;;;;3.37;1.50;;;16.20;59.30;;;;;;5014940;28;20182;-43
2023/09/21 02:58:23;;;;;;;3.63;1.63;;;16.20;58.50;;;;;;5016525;28;20200;-44
2023/09/21 03:00:49;;;;;;;4.23;1.80;;;16.20;58.30;;;;;;5015904;28;20244;-44
2023/09/21 03:03:17;;;;;;;3.43;1.53;;;16.20;60.80;;;;;;5014914;28;20182;-48
2023/09/21 03:05:47;;;;;;;3.30;1.77;;;16.10;60.70;;;;;;5014996;28;20174;-48
2023/09/21 03:08:14;;;;;;;2.10;1.27;;;16.10;64.90;;;;;;5016108;28;20211;-49
2023/09/21 03:10:44;;;;;;;5.43;1.70;;;16.10;61.60;;;;;;5014666;28;20197;-50
2023/09/21 03:13:10;;;;;;;1.80;1.30;;;16.10;64.00;;;;;;5016230;28;20185;-49
2023/09/21 03:15:37;;;;;;;3.17;1.73;;;16.10;63.60;;;;;;5016199;28;20221;-49
2023/09/21 03:18:06;;;;;;;3.13;1.70;;;16.10;57.20;;;;;;5016317;28;20181;-48
2023/09/21 03:20:32;;;;;;;5.53;2.27;;;16.10;58.00;;;;;;5015454;28;20198;-50
2023/09/21 03:25:34;;;;;;;4.77;1.43;;;16.10;60.30;;;;;;4344815;26;20291;-50
2023/09/21 03:28:06;;;;;;;1.97;1.50;;;16.10;71.60;;;;;;5015780;28;20185;-48
2023/09/21 03:30:32;;;;;;;5.07;1.77;;;16.10;65.20;;;;;;5015604;28;20233;-48
2023/09/21 03:32:59;;;;;;;3.07;1.70;;;16.20;66.40;;;;;;5015297;28;20209;-50
2023/09/21 03:35:27;;;;;;;5.40;1.67;;;16.20;66.10;;;;;;4998497;28;20192;-48
2023/09/21 03:37:54;;;;;;;3.53;1.60;;;16.20;65.00;;;;;;5025251;23;20228;-45
2023/09/21 03:40:20;;;;;;;3.10;1.90;;;16.20;66.90;;;;;;5014312;28;20218;-48
2023/09/21 03:42:46;;;;;;;2.03;1.57;;;16.20;65.10;;;;;;5015525;28;20220;-50
2023/09/21 03:45:16;;;;;;;2.70;1.70;;;16.30;57.20;;;;;;5015565;28;20278;-49
2023/09/21 03:47:42;;;;;;;4.10;1.70;;;16.30;54.50;;;;;;5015677;28;20178;-49
2023/09/21 03:50:12;;;;;;;3.10;1.73;;;16.30;49.70;;;;;;5014052;28;20212;-50
2023/09/21 03:52:44;;;;;;;4.07;1.70;;;16.40;57.60;;;;;;5015426;28;20193;-50
2023/09/21 03:55:15;;;;;;;2.30;1.60;;;16.30;51.30;;;;;;5015667;28;20162;-49
2023/09/21 03:57:42;;;;;;;2.80;1.83;;;16.40;53.00;;;;;;5015590;28;20242;-49
2023/09/21 04:00:21;;;;;;;4.20;2.33;;;16.30;50.10;;;;;;5015080;28;20216;-49
2023/09/21 04:02:47;;;;;;;4.47;1.93;;;16.40;50.40;;;;;;5015548;28;20256;-49
2023/09/21 04:05:15;;;;;;;2.60;1.70;;;16.40;49.30;;;;;;5015073;28;20260;-48
2023/09/21 04:07:48;;;;;;;3.53;1.70;;;16.30;49.60;;;;;;5015547;28;20188;-48
2023/09/21 04:10:16;;;;;;;2.23;1.50;;;16.30;53.20;;;;;;5014195;28;20197;-48
2023/09/21 04:12:43;;;;;;;4.07;1.70;;;16.30;52.00;;;;;;5014861;28;20178;-49
2023/09/21 04:15:10;;;;;;;6.03;1.70;;;16.30;51.90;;;;;;5015245;28;20304;-50
2023/09/21 04:17:36;;;;;;;4.33;1.70;;;16.30;55.00;;;;;;5013892;28;20185;-49
2023/09/21 04:20:10;;;;;;;5.70;2.40;;;16.30;54.70;;;;;;5013537;28;20244;-50
2023/09/21 04:22:41;;;;;;;1.67;1.53;;;16.30;52.10;;;;;;5015283;28;20173;-49
2023/09/21 04:25:09;;;;;;;3.43;1.90;;;16.30;56.30;;;;;;5013667;28;20173;-48
2023/09/21 04:27:37;;;;;;;4.00;1.67;;;16.20;59.60;;;;;;5013685;28;20204;-50
2023/09/21 04:30:03;;;;;;;3.37;1.90;;;16.20;64.80;;;;;;5013477;28;20212;-49
2023/09/21 04:32:29;;;;;;;2.77;1.80;;;16.10;68.50;;;;;;5014611;28;20601;-44
2023/09/21 04:42:46;;;;;;;3.17;2.03;;;16.00;73.40;;;;;;4826458;26;20224;-50
2023/09/21 04:45:14;;;;;;;3.57;1.50;;;16.10;68.00;;;;;;5034176;28;20236;-48
2023/09/21 04:47:41;;;;;;;2.73;1.70;;;16.10;66.30;;;;;;5034227;28;20173;-50
2023/09/21 04:52:36;;;;;;;4.03;1.90;;;16.10;66.90;;;;;;5031942;28;20221;-46
2023/09/21 04:55:08;;;;;;;2.43;1.73;;;16.10;69.50;;;;;;5033636;28;20173;-49
2023/09/21 04:57:34;;;;;;;3.77;1.70;;;16.10;72.70;;;;;;5016232;28;20165;-48
2023/09/21 05:00:05;;;;;;;1.90;1.70;;;16.00;72.00;;;;;;5016206;28;20216;-49
2023/09/21 05:02:31;;;;;;;3.83;1.77;;;16.10;74.90;;;;;;5016372;28;20235;-48
2023/09/21 05:04:57;;;;;;;4.73;1.70;;;16.00;73.60;;;;;;5033832;28;20656;-48
2023/09/21 05:07:22;;;;;;;2.30;1.80;;;16.00;79.30;;;;;;5033685;28;20181;-49
2023/09/21 05:09:48;;;;;;;3.73;1.90;;;16.00;84.70;;;;;;5033767;28;20203;-48
2023/09/21 05:12:16;;;;;;;6.03;1.80;;;16.00;92.60;;;;;;5033954;28;20177;-49
2023/09/21 05:14:42;;;;;;;2.63;1.60;;;15.90;93.20;;;;;;5015989;28;20177;-48
2023/09/21 05:17:08;;;;;;;3.40;2.20;;;16.00;93.60;;;;;;5034045;28;20232;-47
2023/09/21 05:19:49;;;;;;;2.30;1.73;;;16.00;97.20;;;;;;5033862;28;20744;-49
2023/09/21 05:22:25;;;;;;;4.93;2.03;;;16.00;98.50;;;;;;5016772;28;20188;-48
2023/09/21 05:24:52;;;;;;;3.03;1.70;;;16.00;99.90;;;;;;5033793;28;20177;-49
2023/09/21 05:27:21;;;;;;;4.27;1.90;;;16.10;99.90;;;;;;5033730;28;20177;-49
2023/09/21 05:29:47;;;;;;;8.37;2.07;;;16.10;99.90;;;;;;5033438;28;20197;-49
2023/09/21 05:32:13;;;;;;;2.90;1.53;;;16.20;99.90;;;;;;5033953;28;20179;-48
2023/09/21 05:34:39;;;;;;;2.73;1.90;;;16.20;99.90;;;;;;5033883;28;20203;-48
2023/09/21 05:37:05;;;;;;;7.63;1.70;;;16.20;98.50;;;;;;5016120;28;20548;-49
2023/09/21 05:39:30;;;;;;;5.03;1.70;;;16.30;95.70;;;;;;5033909;28;20212;-49
2023/09/21 05:41:58;;;;;;;6.10;2.30;;;16.40;93.70;;;;;;5016800;28;20634;-50
2023/09/21 05:44:25;;;;;;;4.53;2.20;;;16.30;92.70;;;;;;5034119;28;20188;-50
2023/09/21 05:46:52;;;;;;;3.07;1.90;;;16.40;93.40;;;;;;5033549;28;20173;-44
2023/09/21 05:49:27;;;;;;;2.73;1.67;;;16.40;92.80;;;;;;5033023;28;20197;-44
2023/09/21 05:51:56;;;;;;;4.37;2.37;;;16.40;93.00;;;;;;5033760;28;20719;-44
2023/09/21 05:54:26;;;;;;;4.00;1.80;;;16.40;95.10;;;;;;5033302;28;20177;-42
2023/09/21 05:56:53;;;;;;;4.37;2.13;;;16.50;95.70;;;;;;5034792;28;20692;-43
2023/09/21 05:59:21;;;;;;;4.00;1.80;;;16.50;96.60;;;;;;5037039;28;20271;-45
2023/09/21 06:01:48;;;;;;;3.97;2.00;;;16.50;96.60;;;;;;5036768;28;20180;-43
2023/09/21 06:04:21;;;;;;;3.70;1.90;;;16.60;96.60;;;;;;5036816;28;20636;-41
2023/09/21 06:06:48;;;;;;;2.93;1.87;;;16.60;96.50;;;;;;5037038;28;20174;-42
2023/09/21 06:09:19;;;;;;;4.07;2.10;;;16.70;98.40;;;;;;5036502;28;20208;-43
2023/09/21 06:11:45;;;;;;;3.40;1.70;;;16.70;99.90;;;;;;5003343;28;20180;-44
2023/09/21 06:14:11;;;;;;;2.30;1.60;;;16.80;99.90;;;;;;5036832;28;20278;-44
2023/09/21 06:16:38;;;;;;;3.20;1.80;;;16.90;99.90;;;;;;5036550;28;20175;-46
2023/09/21 06:19:05;;;;;;;2.90;1.80;;;17.00;91.40;;;;;;5037006;28;20189;-45
2023/09/21 06:21:39;;;;;;;3.57;1.90;;;17.10;84.70;;;;;;5018880;28;20307;-43
2023/09/21 06:24:06;;;;;;;5.30;1.80;;;17.20;78.80;;;;;;5036609;28;20239;-43
2023/09/21 06:26:36;;;;;;;5.47;1.90;;;17.20;75.40;;;;;;5019269;28;20248;-43
2023/09/21 06:29:08;;;;;;;3.07;2.03;;;17.30;68.50;;;;;;5036562;28;20203;-43
2023/09/21 06:31:36;;;;;;;5.33;2.20;;;17.40;70.30;;;;;;5036753;28;20192;-43
2023/09/21 06:34:07;;;;;;;3.67;2.10;;;17.40;68.70;;;;;;5018614;28;20177;-45
2023/09/21 06:36:33;;;;;;;3.90;1.90;;;17.50;69.90;;;;;;5031232;23;20222;-50
2023/09/21 06:39:01;;;;;;;2.37;1.60;;;17.50;66.30;;;;;;5032187;23;20267;-89
2023/09/21 06:41:28;;;;;;;5.90;1.97;;;17.60;67.90;;;;;;5036141;28;20209;-88
2023/09/21 06:43:55;;;;;;;5.60;1.90;;;17.70;68.40;;;;;;5020811;28;20201;-88
2023/09/21 06:46:21;;;;;;;5.33;1.97;;;17.70;70.50;;;;;;5021090;28;20205;-89
2023/09/21 06:48:48;;;;;;;10.13;2.70;;;17.70;68.10;;;;;;5018963;28;20194;-91
2023/09/21 06:51:14;;;;;;;2.73;1.77;;;17.80;69.20;;;;;;5028825;28;20184;-89
2023/09/21 06:53:40;;;;;;;3.70;2.63;;;17.90;61.20;;;;;;5018459;28;20554;-88
2023/09/21 06:56:07;;;;;;;2.30;1.63;;;17.90;59.70;;;;;;5019814;28;20232;-89
2023/09/21 06:58:35;;;;;;;4.87;2.03;;;18.00;62.00;;;;;;5019519;28;20174;-88
2023/09/21 07:01:04;;;;;;;2.43;1.63;;;18.00;60.80;;;;;;5018964;28;20208;-89
2023/09/21 07:03:30;;;;;;;3.97;2.27;;;18.00;65.00;;;;;;5020644;28;20618;-88
2023/09/21 07:05:57;;;;;;;5.07;2.20;;;18.10;59.30;;;;;;5017955;28;20252;-88
2023/09/21 07:08:23;;;;;;;4.60;1.93;;;18.10;58.90;;;;;;5019673;28;20181;-88
2023/09/21 07:10:49;;;;;;;3.10;1.97;;;18.00;52.50;;;;;;5019708;28;20185;-90
2023/09/21 07:13:15;;;;;;;3.97;1.93;;;18.20;56.60;;;;;;5019026;28;20181;-87
2023/09/21 07:15:43;;;;;;;4.20;2.10;;;18.20;61.20;;;;;;5018185;28;20576;-88
2023/09/21 07:18:09;;;;;;;7.83;2.10;;;18.30;61.60;;;;;;5019655;28;20276;-89
2023/09/21 07:20:37;;;;;;;7.77;2.43;;;18.30;63.80;;;;;;5020743;28;20227;-87
2023/09/21 07:23:03;;;;;;;5.57;2.77;;;18.50;70.80;;;;;;5018042;28;20209;-90
2023/09/21 07:25:30;;;;;;;4.37;1.83;;;18.50;83.80;;;;;;5017192;28;20241;-87
2023/09/21 07:27:57;;;;;;;2.50;1.77;;;18.70;91.90;;;;;;5017271;28;20198;-89
2023/09/21 07:30:23;;;;;;;5.90;3.00;;;18.80;93.00;;;;;;5019032;28;20561;-89
2023/09/21 07:32:49;;;;;;;6.27;2.40;;;19.00;91.50;;;;;;5019584;28;20185;-89
2023/09/21 07:35:15;;;;;;;4.10;2.23;;;19.00;90.50;;;;;;5017487;28;20247;-90
2023/09/21 07:37:46;;;;;;;6.13;2.20;;;19.20;87.70;;;;;;5000970;28;20209;-89
2023/09/21 07:40:16;;;;;;;6.50;2.43;;;19.20;86.30;;;;;;5017721;28;20579;-89
2023/09/21 07:42:43;;;;;;;4.40;2.27;;;19.30;85.70;;;;;;5019100;28;20228;-89
2023/09/21 07:45:10;;;;;;;5.67;2.73;;;19.30;84.50;;;;;;5019491;28;20226;-89
2023/09/21 07:47:37;;;;;;;6.07;2.37;;;19.40;82.90;;;;;;5017913;28;20208;-87
2023/09/21 07:50:06;;;;;;;3.70;2.60;;;19.50;81.00;;;;;;5032056;28;20185;-88
2023/09/21 07:52:36;;;;;;;5.50;2.30;;;19.60;80.30;;;;;;5017063;28;20220;-88
2023/09/21 07:55:03;;;;;;;4.17;2.20;;;19.50;82.20;;;;;;4999504;28;20197;-87
2023/09/21 07:57:39;;;;;;;6.30;2.10;;;19.70;77.10;;;;;;5017166;28;20635;-89
2023/09/21 08:00:06;;;;;;;5.03;2.07;;;19.80;73.90;;;;;;5016901;28;20228;-87
2023/09/21 08:02:33;;;;;;;6.77;2.00;;;19.90;71.40;;;;;;5017819;28;20213;-88
2023/09/21 08:04:58;;;;;;;6.70;2.60;;;19.90;71.50;;;;;;5016378;28;20547;-88
2023/09/21 08:07:26;;;;;;;2.77;2.03;;;20.00;70.40;;;;;;5017100;28;20700;-89
2023/09/21 08:09:54;;;;;;;5.33;2.20;;;20.10;71.30;;;;;;5016971;28;20185;-89
2023/09/21 08:12:21;;;;;;;3.60;2.20;;;20.20;67.30;;;;;;5017241;28;20177;-89
2023/09/21 08:14:48;;;;;;;3.40;2.07;;;20.30;65.70;;;;;;5030100;28;20220;-90
2023/09/21 08:17:13;;;;;;;4.33;1.80;;;20.20;58.60;;;;;;5039314;28;20267;-81
2023/09/21 08:19:40;;;;;;;2.87;1.90;;;20.30;58.30;;;;;;5038790;28;20194;-84
2023/09/21 08:22:06;;;;;;;4.00;1.73;;;20.30;58.50;;;;;;5038941;28;20181;-83
2023/09/21 08:24:31;;;;;;;2.57;1.60;;;20.40;55.50;;;;;;5039278;28;20184;-88
2023/09/21 08:26:57;;;;;;;4.47;1.80;;;20.40;53.80;;;;;;5022993;28;20213;-81
2023/09/21 08:29:23;;;;;;;3.37;1.73;;;20.40;55.30;;;;;;5039890;28;20199;-80
2023/09/21 08:31:49;;;;;;;4.13;1.87;;;20.50;52.80;;;;;;5039439;28;20186;-88
2023/09/21 08:34:16;;;;;;;1.90;1.37;;;20.40;49.50;;;;;;5039242;28;20201;-88
2023/09/21 08:36:44;;;;;;;2.23;1.60;;;20.50;46.60;;;;;;5039801;28;20220;-87
2023/09/21 08:39:11;;;;;;;3.83;1.43;;;20.50;47.50;;;;;;5039085;28;20205;-83
2023/09/21 08:41:43;;;;;;;4.47;1.60;;;20.50;48.20;;;;;;5039748;28;20276;-89
2023/09/21 08:44:09;;;;;;;3.50;1.43;;;20.50;46.70;;;;;;5039669;28;20200;-85
2023/09/21 08:46:38;;;;;;;4.27;1.80;;;20.50;45.40;;;;;;5039423;28;20274;-84
2023/09/21 08:49:06;;;;;;;7.73;1.60;;;20.60;42.60;;;;;;5039644;28;20173;-85
2023/09/21 08:51:37;;;;;;;2.33;1.40;;;20.60;42.20;;;;;;5038942;28;20204;-88
2023/09/21 08:54:06;;;;;;;2.57;1.33;;;20.60;43.60;;;;;;5039203;28;20165;-79
2023/09/21 08:56:33;;;;;;;2.97;1.43;;;20.70;44.50;;;;;;5021923;28;20293;-91
2023/09/21 08:59:00;;;;;;;2.13;1.53;;;20.70;44.30;;;;;;5018376;28;20204;-92
2023/09/21 09:01:28;;;;;;;3.17;1.53;;;20.60;41.80;;;;;;5019803;28;20209;-91
2023/09/21 09:03:54;;;;;;;2.40;1.20;;;20.70;37.20;;;;;;5019143;28;20186;-91
2023/09/21 09:06:23;;;;;;;6.23;1.70;;;20.70;35.80;;;;;;5018820;28;20208;-90
2023/09/21 09:08:49;;;;;;;3.07;1.20;;;20.80;33.40;;;;;;5019575;28;20178;-90
2023/09/21 09:11:40;;;;;;;1.80;1.20;;;20.80;32.90;;;;;;5019582;28;20193;-90
2023/09/21 09:14:14;;;;;;;4.00;1.37;;;20.80;36.90;;;;;;5019343;28;20182;-91
2023/09/21 09:16:41;;;;;;;4.10;1.10;;;20.80;35.20;;;;;;5017661;28;20227;-91
2023/09/21 09:19:08;;;;;;;5.70;1.60;;;20.80;32.70;;;;;;5018156;28;20186;-89
2023/09/21 09:21:35;;;;;;;2.33;1.47;;;20.80;35.90;;;;;;5018040;28;20212;-88
2023/09/21 09:24:02;;;;;;;3.43;1.30;;;20.80;33.50;;;;;;5018813;28;20177;-90
2023/09/21 09:26:30;;;;;;;1.97;1.30;;;20.80;35.90;;;;;;5017954;28;20276;-91
2023/09/21 09:29:12;;;;;;;2.67;1.30;;;20.80;39.60;;;;;;5018283;28;20195;-89
2023/09/21 09:31:41;;;;;;;2.17;1.40;;;20.70;39.70;;;;;;5019926;28;20183;-91
2023/09/21 09:34:12;;;;;;;2.63;1.23;;;20.80;42.30;;;;;;5006521;28;20268;-90
2023/09/21 09:36:41;;;;;;;1.70;1.30;;;20.80;42.50;;;;;;5023878;28;20240;-90
2023/09/21 09:39:08;;;;;;;3.30;1.53;;;20.80;40.80;;;;;;5021583;28;20201;-91
2023/09/21 09:41:34;;;;;;;4.97;1.30;;;20.80;42.80;;;;;;5022597;28;20229;-90
2023/09/21 09:44:05;;;;;;;3.00;1.30;;;20.90;41.60;;;;;;5023491;28;20174;-89
2023/09/21 09:46:34;;;;;;;2.90;1.43;;;20.90;40.40;;;;;;5021354;28;20265;-89
2023/09/21 09:49:02;;;;;;;1.90;1.60;;;20.90;40.40;;;;;;5020808;28;20177;-89
2023/09/21 09:51:44;;;;;;;3.30;1.63;;;21.00;41.80;;;;;;5025044;28;20181;-86
2023/09/21 09:54:11;;;;;;;4.13;1.50;;;21.00;42.70;;;;;;5033068;28;20243;-91
2023/09/21 09:56:42;;;;;;;2.60;1.30;;;21.10;43.30;;;;;;5023122;28;20198;-92
2023/09/21 09:59:11;;;;;;;3.70;1.43;;;21.10;44.90;;;;;;5023358;28;20182;-91
2023/09/21 10:01:44;;;;;;;2.93;1.30;;;21.10;39.00;;;;;;5022749;28;20227;-91
2023/09/21 10:04:10;;;;;;;4.00;1.47;;;21.10;38.10;;;;;;5024064;28;20554;-92
2023/09/21 10:06:38;;;;;;;2.20;1.27;;;21.20;38.10;;;;;;5021293;28;20208;-92
2023/09/21 10:09:11;;;;;;;3.23;1.43;;;21.10;37.00;;;;;;5022386;28;20185;-91
2023/09/21 10:11:46;;;;;;;3.87;1.50;;;21.10;39.10;;;;;;5022427;28;20208;-91
2023/09/21 10:14:13;;;;;;;1.93;1.23;;;21.20;36.50;;;;;;5022669;28;20184;-90
2023/09/21 10:16:49;;;;;;;3.27;1.50;;;21.20;37.60;;;;;;5023283;28;20704;-92
2023/09/21 10:19:25;;;;;;;7.10;1.50;;;21.20;41.60;;;;;;5022679;28;20680;-92
2023/09/21 10:22:20;;;;;;;1.83;1.20;;;21.20;33.60;;;;;;5021555;28;20192;-91
2023/09/21 10:24:54;;;;;;;2.17;1.40;;;21.20;36.40;;;;;;5008035;28;20178;-91
2023/09/21 10:27:21;;;;;;;2.30;1.43;;;21.30;38.40;;;;;;5018999;28;20209;-91
2023/09/21 10:29:53;;;;;;;2.43;1.50;;;21.30;39.60;;;;;;5021546;28;20188;-91
2023/09/21 10:32:23;;;;;;;2.53;1.40;;;21.30;39.30;;;;;;5022989;28;20154;-91
2023/09/21 10:34:50;;;;;;;2.47;1.00;;;21.30;37.90;;;;;;5020430;28;20213;-90
2023/09/21 10:37:23;;;;;;;3.10;1.40;;;21.30;38.00;;;;;;5019837;28;20209;-90
2023/09/21 10:39:57;;;;;;;2.33;1.10;;;21.30;37.30;;;;;;5020039;28;20239;-91
2023/09/21 10:42:29;;;;;;;2.00;1.30;;;21.30;36.70;;;;;;5019273;28;20177;-91
2023/09/21 10:45:03;;;;;;;2.20;1.53;;;21.30;39.30;;;;;;5019647;28;20548;-90
2023/09/21 10:47:34;;;;;;;2.80;1.57;;;21.40;37.60;;;;;;5011033;28;20204;-89
2023/09/21 10:50:06;;;;;;;3.10;1.63;;;21.40;36.70;;;;;;5022965;28;20173;-90
2023/09/21 10:52:32;;;;;;;2.63;1.40;;;21.40;32.70;;;;;;5020863;28;20260;-90
2023/09/21 10:54:59;;;;;;;2.97;1.70;;;21.40;35.70;;;;;;5020102;28;20562;-90
2023/09/21 10:57:29;;;;;;;1.70;1.30;;;21.40;33.30;;;;;;5020739;28;20212;-91
2023/09/21 10:59:59;;;;;;;2.30;1.30;;;21.30;35.20;;;;;;5004305;28;20213;-90
2023/09/21 11:02:30;;;;;;;3.57;1.40;;;21.30;36.10;;;;;;5004655;28;20570;-90
2023/09/21 11:04:57;;;;;;;2.53;1.40;;;21.30;34.90;;;;;;5020358;28;20178;-91
2023/09/21 11:07:24;;;;;;;1.57;1.30;;;21.20;37.80;;;;;;5020190;28;20197;-92
2023/09/21 11:09:50;;;;;;;3.33;1.40;;;21.10;35.70;;;;;;5004509;28;20232;-90
2023/09/21 11:12:17;;;;;;;4.43;1.50;;;21.10;40.10;;;;;;5020502;28;20185;-90
2023/09/21 11:14:48;;;;;;;3.77;1.40;;;21.10;41.70;;;;;;5019848;28;20182;-90
2023/09/21 11:17:18;;;;;;;1.60;1.33;;;21.10;42.00;;;;;;5021056;28;20219;-90
2023/09/21 11:19:45;;;;;;;2.57;1.30;;;21.20;43.50;;;;;;5019584;28;20207;-91
2023/09/21 11:22:14;;;;;;;2.63;1.50;;;21.10;42.40;;;;;;5021188;28;20204;-91
2023/09/21 11:24:40;;;;;;;3.93;1.53;;;21.20;44.00;;;;;;5020207;28;20257;-91
2023/09/21 11:27:14;;;;;;;6.10;1.50;;;21.20;42.90;;;;;;5020305;28;20197;-92
2023/09/21 11:29:41;;;;;;;5.77;1.50;;;21.20;43.70;;;;;;5019854;28;20181;-91
2023/09/21 11:32:17;;;;;;;2.83;1.63;;;21.20;43.10;;;;;;5021242;28;20200;-91
2023/09/21 11:34:44;;;;;;;2.67;1.30;;;21.20;42.30;;;;;;5019545;28;20212;-90
2023/09/21 11:37:12;;;;;;;4.57;1.43;;;21.20;42.30;;;;;;5020987;28;20206;-92
2023/09/21 11:39:48;;;;;;;6.53;1.50;;;21.20;46.20;;;;;;5021034;28;20261;-91
2023/09/21 11:42:17;;;;;;;8.63;1.73;;;21.20;49.10;;;;;;5019729;28;20181;-91
2023/09/21 11:44:50;;;;;;;1.97;1.33;;;21.20;50.80;;;;;;5019306;28;20641;-88
2023/09/21 11:47:18;;;;;;;2.67;1.30;;;21.20;52.80;;;;;;5019186;28;20193;-90
2023/09/21 11:49:44;;;;;;;5.13;1.43;;;21.30;55.80;;;;;;5019823;28;20174;-89
2023/09/21 11:52:13;;;;;;;2.43;1.60;;;21.40;60.30;;;;;;5020278;28;20188;-89
2023/09/21 11:54:40;;;;;;;3.03;1.60;;;21.50;65.20;;;;;;5001339;28;20688;-91
2023/09/21 11:57:11;;;;;;;4.07;2.00;;;21.60;68.10;;;;;;5018885;28;20205;-91
2023/09/21 11:59:42;;;;;;;3.03;1.57;;;21.60;62.50;;;;;;5020722;28;20161;-89
2023/09/21 12:02:13;;;;;;;3.53;1.67;;;21.80;58.20;;;;;;5025603;28;20173;-92
2023/09/21 12:04:41;;;;;;;6.23;1.87;;;21.70;56.60;;;;;;5021028;28;20161;-93
2023/09/21 12:07:08;;;;;;;2.43;1.60;;;21.80;53.90;;;;;;5020925;28;20197;-91
2023/09/21 12:09:37;;;;;;;3.60;1.57;;;21.90;49.00;;;;;;5019123;28;20182;-89
2023/09/21 12:12:05;;;;;;;3.23;1.70;;;21.90;46.40;;;;;;5020303;28;20181;-91
2023/09/21 12:14:31;;;;;;;3.77;1.80;;;21.90;44.70;;;;;;5020323;28;20178;-92
2023/09/21 12:17:01;;;;;;;1.77;1.30;;;21.90;41.80;;;;;;5021196;28;20699;-91
2023/09/21 12:19:27;;;;;;;3.40;1.77;;;21.90;40.00;;;;;;5019838;28;20571;-92
2023/09/21 12:21:56;;;;;;;3.30;1.30;;;21.80;38.90;;;;;;5019996;28;20177;-91
2023/09/21 12:24:21;;;;;;;3.27;1.57;;;21.80;38.40;;;;;;5020003;28;20244;-89
2023/09/21 12:26:47;;;;;;;4.40;2.07;;;21.80;43.50;;;;;;5020617;28;20197;-92
2023/09/21 12:29:17;;;;;;;4.30;1.90;;;21.70;50.60;;;;;;5024757;28;20170;-92
2023/09/21 12:31:44;;;;;;;2.60;1.67;;;21.60;55.60;;;;;;5023912;28;20185;-91
2023/09/21 12:34:15;;;;;;;4.17;1.60;;;21.40;62.90;;;;;;5022418;28;20182;-91
2023/09/21 12:36:42;;;;;;;2.70;1.67;;;21.30;65.30;;;;;;5022095;28;20699;-92
2023/09/21 12:39:09;;;;;;;4.33;1.90;;;21.20;70.50;;;;;;5023553;28;20311;-90
2023/09/21 12:41:38;;;;;;;3.67;1.77;;;21.10;79.30;;;;;;5023412;28;20186;-91
2023/09/21 12:44:06;;;;;;;4.83;1.87;;;21.10;84.30;;;;;;5022044;28;20182;-89
2023/09/21 12:46:33;;;;;;;4.33;2.00;;;21.10;88.80;;;;;;5025150;28;20252;-91
2023/09/21 12:48:59;;;;;;;5.70;2.00;;;21.00;91.20;;;;;;5005689;28;20182;-92
2023/09/21 12:51:28;;;;;;;3.77;2.03;;;21.10;92.40;;;;;;5022767;28;20182;-87
2023/09/21 12:53:53;;;;;;;5.37;2.13;;;21.10;94.60;;;;;;5025213;28;20587;-91
2023/09/21 12:56:19;;;;;;;4.20;2.30;;;21.10;97.40;;;;;;5020897;28;20236;-93
2023/09/21 12:58:45;;;;;;;4.20;2.17;;;21.00;99.00;;;;;;5021185;28;20191;-92
2023/09/21 13:01:11;;;;;;;10.27;2.90;;;20.90;99.80;;;;;;5019806;28;20205;-91
2023/09/21 13:03:36;;;;;;;5.43;2.07;;;20.70;99.90;;;;;;5019118;28;20187;-90
2023/09/21 13:06:05;;;;;;;4.93;2.07;;;20.40;99.90;;;;;;5019609;28;20209;-92
2023/09/21 13:08:31;;;;;;;3.67;1.80;;;20.40;99.90;;;;;;5017981;28;20260;-92
2023/09/21 13:10:56;;;;;;;2.77;1.73;;;20.30;99.90;;;;;;5019051;28;20220;-93
2023/09/21 13:13:22;;;;;;;4.83;1.70;;;20.30;99.90;;;;;;5019181;28;20194;-91